createdAt,value
2023-03-27T00:00:02.488Z,0.83
2023-03-27T00:04:02.751Z,0.72
2023-03-27T00:08:02.906Z,0.81
2023-03-27T00:12:03.148Z,0.92
2023-03-27T00:16:03.356Z,0.89
2023-03-27T00:20:03.537Z,0.88
2023-03-27T00:24:03.881Z,0.84
2023-03-27T00:28:03.709Z,0.78
2023-03-27T00:32:03.683Z,0.75
2023-03-27T00:36:03.842Z,0.85
2023-03-27T00:40:03.647Z,0.86
2023-03-27T00:44:03.565Z,0.74
2023-03-27T00:48:03.614Z,0.69
2023-03-27T00:52:03.488Z,0.69
2023-03-27T00:56:03.471Z,0.82
2023-03-27T01:00:03.411Z,0.82
2023-03-27T01:04:03.399Z,0.77
2023-03-27T01:08:03.486Z,0.76
2023-03-27T01:12:03.673Z,0.77
2023-03-27T01:16:03.888Z,0.85
2023-03-27T01:20:04.066Z,0.77
2023-03-27T01:24:04.280Z,0.77
2023-03-27T01:28:04.479Z,0.80
2023-03-27T01:32:04.685Z,0.83
2023-03-27T01:36:04.937Z,0.74
2023-03-27T01:40:04.863Z,0.73
2023-03-27T01:44:04.834Z,0.73
2023-03-27T01:48:04.857Z,0.64
2023-03-27T01:52:04.763Z,0.59
2023-03-27T01:56:04.719Z,0.64
2023-03-27T02:00:17.283Z,0.73
2023-03-27T02:04:05.646Z,0.71
2023-03-27T02:08:04.614Z,0.76
2023-03-27T02:12:04.861Z,0.67
2023-03-27T02:16:04.884Z,0.71
2023-03-27T02:20:04.756Z,0.74
2023-03-27T02:24:04.747Z,0.68
2023-03-27T02:28:04.688Z,0.61
2023-03-27T02:32:04.723Z,0.76
2023-03-27T02:36:04.694Z,0.74
2023-03-27T02:40:04.583Z,0.70
2023-03-27T02:44:04.544Z,0.64
2023-03-27T02:48:04.557Z,0.58
2023-03-27T02:52:04.539Z,0.70
2023-03-27T02:56:04.767Z,0.69
2023-03-27T03:00:05.026Z,0.67
2023-03-27T03:04:04.986Z,0.64
2023-03-27T03:08:04.991Z,0.78
2023-03-27T03:12:04.895Z,0.69
2023-03-27T03:16:04.827Z,0.71
2023-03-27T03:20:04.823Z,0.62
2023-03-27T03:24:04.775Z,0.66
2023-03-27T03:28:04.735Z,0.67
2023-03-27T03:32:04.722Z,0.67
2023-03-27T03:36:04.724Z,0.51
2023-03-27T03:40:04.667Z,0.55
2023-03-27T03:44:04.735Z,0.56
2023-03-27T03:48:04.762Z,0.66
2023-03-27T03:52:05.098Z,0.70
2023-03-27T03:56:04.627Z,0.69
2023-03-27T04:00:04.599Z,0.68
2023-03-27T04:04:04.571Z,0.80
2023-03-27T04:08:04.582Z,0.69
2023-03-27T04:12:04.498Z,0.67
2023-03-27T04:16:04.536Z,0.56
2023-03-27T04:20:04.430Z,0.78
2023-03-27T04:24:04.530Z,0.71
2023-03-27T04:28:04.736Z,0.73
2023-03-27T04:32:04.955Z,0.69
2023-03-27T04:36:06.619Z,0.63
2023-03-27T04:40:05.368Z,0.65
2023-03-27T04:44:05.356Z,0.85
2023-03-27T04:48:05.407Z,0.80
2023-03-27T04:52:05.279Z,0.85
2023-03-27T04:56:05.241Z,0.89
2023-03-27T05:00:05.189Z,0.85
2023-03-27T05:04:05.225Z,0.98
2023-03-27T05:08:05.119Z,1.27
2023-03-27T05:12:05.104Z,1.23
2023-03-27T05:16:05.119Z,1.19
2023-03-27T05:20:05.022Z,1.31
2023-03-27T05:24:05.205Z,1.32
2023-03-27T05:28:05.221Z,1.37
2023-03-27T05:32:05.137Z,1.01
2023-03-27T05:36:05.069Z,1.42
2023-03-27T05:40:05.059Z,0.73
2023-03-27T05:44:05.022Z,0.34
2023-03-27T05:48:05.085Z,0.34
2023-03-27T05:52:04.918Z,1.71
2023-03-27T05:56:04.881Z,1.45
2023-03-27T06:00:04.869Z,2.61
2023-03-27T06:04:04.932Z,5.82
2023-03-27T06:08:04.802Z,2.41
2023-03-27T06:12:04.767Z,3.87
2023-03-27T06:16:04.887Z,5.66
2023-03-27T06:20:04.915Z,7.02
2023-03-27T06:24:04.894Z,10.71
2023-03-27T06:28:05.437Z,13.49
2023-03-27T06:32:05.044Z,10.95
2023-03-27T06:36:05.019Z,18.03
2023-03-27T06:40:04.974Z,15.09
2023-03-27T06:44:04.941Z,62.15
2023-03-27T06:48:18.064Z,27.66
2023-03-27T06:52:05.851Z,19.87
2023-03-27T06:56:04.912Z,24.90
2023-03-27T07:00:04.836Z,22.54
2023-03-27T07:04:04.934Z,22.34
2023-03-27T07:08:15.078Z,25.77
2023-03-27T07:12:05.971Z,23.00
2023-03-27T07:16:05.044Z,26.13
2023-03-27T07:20:05.048Z,25.69
2023-03-27T07:24:05.425Z,21.59
2023-03-27T07:28:06.304Z,19.41
2023-03-27T09:27:16.563Z,0.50
2023-03-27T09:31:16.702Z,0.50
2023-03-27T09:35:16.635Z,0.34
2023-03-27T09:39:16.638Z,0.86
2023-03-27T09:43:16.691Z,0.47
2023-03-27T09:47:16.628Z,0.50
2023-03-27T09:51:16.341Z,0.88
2023-03-27T09:55:16.294Z,1.00
2023-03-27T09:59:16.254Z,0.63
2023-03-27T10:03:16.531Z,0.56
2023-03-27T10:07:16.198Z,0.60
2023-03-27T10:11:16.168Z,0.54
2023-03-27T10:15:16.110Z,1.03
2023-03-27T10:19:16.105Z,2.39
2023-03-27T10:23:16.209Z,1.00
2023-03-27T10:27:15.997Z,0.34
2023-03-27T10:31:23.713Z,0.34
2023-03-27T10:35:15.976Z,0.34
2023-03-27T10:39:15.888Z,0.37
2023-03-27T10:43:15.848Z,0.53
2023-03-27T10:47:15.812Z,0.68
2023-03-27T10:51:15.997Z,0.53
2023-03-27T10:55:16.192Z,0.39
2023-03-27T10:59:16.130Z,1.07
2023-03-27T11:03:16.379Z,2.04
2023-03-27T11:07:16.534Z,2.82
2023-03-27T11:11:16.645Z,2.98
2023-03-27T11:15:16.760Z,3.23
2023-03-27T11:19:17.225Z,4.54
2023-03-27T11:23:17.231Z,5.35
2023-03-27T11:27:16.911Z,4.66
2023-03-27T11:31:17.004Z,4.67
2023-03-27T11:35:16.990Z,4.76
2023-03-27T11:39:17.045Z,3.88
2023-03-27T11:43:17.079Z,3.90
2023-03-27T11:47:17.114Z,3.81
2023-03-27T11:51:17.142Z,3.88
2023-03-27T11:55:17.180Z,3.83
2023-03-27T11:59:17.224Z,3.67
2023-03-27T12:03:17.274Z,3.64
2023-03-27T12:07:26.301Z,3.62
2023-03-27T12:11:18.208Z,3.59
2023-03-27T12:15:17.089Z,3.45
2023-03-27T12:19:28.557Z,4.00
2023-03-27T12:23:17.021Z,2.76
2023-03-27T12:27:16.986Z,2.77
2023-03-27T12:31:16.953Z,3.00
2023-03-27T12:35:21.693Z,2.81
2023-03-27T12:39:16.902Z,3.39
2023-03-27T12:43:16.892Z,4.43
2023-03-27T12:47:16.905Z,4.30
2023-03-27T12:51:16.897Z,4.42
2023-03-27T12:55:17.222Z,4.23
2023-03-27T12:59:16.832Z,4.13
2023-03-27T13:03:16.859Z,3.91
2023-03-27T13:07:17.230Z,3.82
2023-03-27T13:11:16.721Z,3.72
2023-03-27T13:15:16.667Z,3.49
2023-03-27T13:19:16.628Z,3.41
2023-03-27T13:23:16.593Z,3.49
2023-03-27T13:27:16.590Z,3.29
2023-03-27T13:31:16.641Z,3.13
2023-03-27T13:35:16.580Z,2.93
2023-03-27T13:39:16.588Z,2.92
2023-03-27T13:43:16.551Z,2.78
2023-03-27T13:47:16.573Z,2.80
2023-03-27T13:51:16.579Z,2.82
2023-03-27T13:55:16.541Z,2.61
2023-03-27T13:59:16.583Z,2.44
2023-03-27T14:03:16.745Z,2.35
2023-03-27T14:07:16.580Z,2.34
2023-03-27T14:11:16.529Z,2.31
2023-03-27T14:15:16.519Z,2.22
2023-03-27T14:19:16.522Z,2.57
2023-03-27T14:23:16.562Z,2.36
2023-03-27T14:27:16.530Z,2.25
2023-03-27T14:31:16.638Z,2.22
2023-03-27T14:35:16.651Z,2.17
2023-03-27T14:39:16.634Z,2.04
2023-03-27T14:43:16.667Z,2.21
2023-03-27T14:47:16.662Z,2.14
2023-03-27T14:51:16.707Z,2.32
2023-03-27T14:55:16.741Z,2.25
2023-03-27T14:59:16.781Z,2.07
2023-03-27T15:03:16.939Z,2.12
2023-03-27T15:07:16.853Z,2.30
2023-03-27T15:11:16.924Z,2.12
2023-03-27T15:15:16.971Z,1.99
2023-03-27T15:19:16.987Z,2.03
2023-03-27T15:23:17.029Z,1.81
2023-03-27T15:27:17.108Z,1.86
2023-03-27T15:31:17.187Z,1.92
2023-03-27T15:35:17.156Z,1.88
2023-03-27T15:39:17.172Z,1.98
2023-03-27T15:44:32.454Z,0.50
2023-03-27T15:45:32.429Z,0.50
2023-03-27T15:46:57.849Z,0.50
2023-03-27T15:47:57.807Z,0.50
2023-03-27T15:48:57.725Z,0.50
2023-03-27T15:49:57.703Z,0.50
2023-03-27T15:50:57.708Z,0.50
2023-03-27T15:51:57.703Z,0.56
2023-03-27T15:52:57.691Z,0.77
2023-03-27T15:53:57.686Z,0.93
2023-03-27T15:54:57.678Z,1.06
2023-03-27T15:55:57.920Z,1.15
2023-03-27T15:57:09.585Z,1.07
2023-03-27T15:57:58.666Z,1.07
2023-03-27T15:58:57.653Z,1.03
2023-03-27T15:59:57.737Z,1.00
2023-03-27T16:00:57.812Z,0.94
2023-03-27T16:01:57.694Z,0.92
2023-03-27T16:02:57.725Z,0.98
2023-03-27T16:03:58.973Z,0.88
2023-03-27T16:04:57.635Z,0.93
2023-03-27T16:05:57.792Z,0.97
2023-03-27T16:06:57.584Z,0.98
2023-03-27T16:07:57.562Z,0.90
2023-03-27T16:08:57.588Z,0.89
2023-03-27T16:09:57.598Z,1.05
2023-03-27T16:10:57.547Z,1.02
2023-03-27T16:11:57.563Z,0.98
2023-03-27T16:12:57.536Z,0.89
2023-03-27T16:13:57.530Z,0.92
2023-03-27T16:14:57.618Z,0.92
2023-03-27T16:15:57.748Z,0.97
2023-03-27T16:16:57.516Z,0.99
2023-03-27T16:17:57.541Z,0.96
2023-03-27T16:18:57.516Z,1.01
2023-03-27T16:19:57.552Z,1.00
2023-03-27T16:20:57.488Z,0.98
2023-03-27T16:21:57.568Z,0.99
2023-03-27T16:22:57.479Z,0.97
2023-03-27T16:23:57.485Z,0.92
2023-03-27T16:24:57.481Z,0.93
2023-03-27T16:25:57.577Z,0.92
2023-03-27T16:26:57.462Z,0.86
2023-03-27T16:27:57.457Z,0.84
2023-03-27T16:28:57.436Z,0.88
2023-03-27T16:29:57.524Z,0.81
2023-03-27T16:30:57.436Z,0.82
2023-03-27T16:31:57.528Z,0.86
2023-03-27T16:32:57.476Z,0.88
2023-03-27T16:33:57.414Z,0.85
2023-03-27T16:34:57.464Z,0.84
2023-03-27T16:35:57.701Z,0.88
2023-03-27T16:36:57.390Z,0.87
2023-03-27T16:37:57.378Z,0.82
2023-03-27T16:38:57.384Z,0.78
2023-03-27T16:39:57.433Z,0.77
2023-03-27T16:40:57.374Z,0.82
2023-03-27T16:41:57.375Z,0.76
2023-03-27T16:42:57.367Z,0.75
2023-03-27T16:43:57.341Z,0.76
2023-03-27T16:44:57.335Z,0.75
2023-03-27T16:45:57.546Z,0.79
2023-03-27T16:46:57.333Z,0.79
2023-03-27T16:47:57.374Z,0.78
2023-03-27T16:48:57.637Z,0.78
2023-03-27T16:50:10.740Z,0.77
2023-03-27T16:50:58.305Z,0.77
2023-03-27T16:51:57.318Z,0.77
2023-03-27T16:52:57.287Z,0.75
2023-03-27T16:53:57.282Z,0.74
2023-03-27T16:54:57.284Z,0.73
2023-03-27T16:55:57.477Z,0.71
2023-03-27T16:56:57.339Z,0.73
2023-03-27T16:57:57.273Z,0.72
2023-03-27T16:58:57.267Z,0.73
2023-03-27T16:59:57.254Z,0.70
2023-03-27T17:00:57.293Z,0.72
2023-03-27T17:01:57.230Z,0.71
2023-03-27T17:02:57.306Z,0.72
2023-03-27T17:03:57.231Z,0.68
2023-03-27T17:04:57.236Z,0.70
2023-03-27T17:05:57.367Z,0.67
2023-03-27T17:06:57.213Z,0.71
2023-03-27T17:07:57.181Z,0.70
2023-03-27T17:08:57.177Z,0.67
2023-03-27T17:09:57.169Z,0.72
2023-03-27T17:10:57.172Z,0.75
2023-03-27T17:11:57.177Z,0.77
2023-03-27T17:12:57.158Z,0.81
2023-03-27T17:13:57.169Z,0.79
2023-03-27T17:14:57.130Z,0.79
2023-03-27T17:15:57.534Z,0.73
2023-03-27T17:16:57.143Z,0.72
2023-03-27T17:17:57.179Z,0.73
2023-03-27T17:18:57.142Z,0.71
2023-03-27T17:19:57.180Z,0.72
2023-03-27T17:20:57.183Z,0.78
2023-03-27T17:21:57.236Z,0.68
2023-03-27T17:22:57.206Z,0.68
2023-03-27T17:23:57.231Z,0.67
2023-03-27T17:24:57.818Z,0.70
2023-03-27T17:25:57.505Z,0.72
2023-03-27T17:26:57.311Z,0.70
2023-03-27T17:27:57.311Z,0.78
2023-03-27T17:28:57.354Z,0.71
2023-03-27T17:29:57.360Z,0.78
2023-03-27T17:31:57.405Z,0.74
2023-03-27T17:32:57.391Z,0.75
2023-03-27T17:33:57.361Z,0.76
2023-03-27T17:34:57.344Z,0.80
2023-03-27T17:35:57.711Z,0.74
2023-03-27T17:36:57.357Z,0.81
2023-03-27T17:37:57.325Z,0.83
2023-03-27T17:38:57.321Z,0.84
2023-03-27T17:39:57.329Z,0.72
2023-03-27T17:40:57.306Z,0.64
2023-03-27T17:41:57.317Z,0.74
2023-03-27T17:42:57.326Z,0.81
2023-03-27T17:43:57.304Z,0.88
2023-03-27T17:44:57.280Z,0.90
2023-03-27T17:45:57.498Z,0.77
2023-03-27T17:46:57.316Z,0.81
2023-03-27T17:47:57.319Z,0.73
2023-03-27T17:48:57.277Z,0.80
2023-03-27T17:49:57.252Z,0.76
2023-03-27T17:51:08.144Z,0.79
2023-03-27T17:51:58.241Z,0.79
2023-03-27T17:52:57.235Z,0.76
2023-03-27T17:53:57.244Z,0.80
2023-03-27T17:54:58.267Z,0.81
2023-03-27T17:55:57.558Z,0.83
2023-03-27T17:56:57.499Z,0.67
2023-03-27T17:58:57.499Z,0.67
2023-03-27T17:59:57.550Z,0.60
2023-03-27T18:00:57.599Z,0.61
2023-03-27T18:01:57.598Z,0.64
2023-03-27T18:02:57.678Z,0.71
2023-03-27T18:03:57.767Z,0.63
2023-03-27T18:04:57.664Z,0.55
2023-03-27T18:05:57.885Z,0.60
2023-03-27T18:06:57.717Z,0.62
2023-03-27T18:07:57.745Z,0.59
2023-03-27T18:08:57.782Z,0.60
2023-03-27T18:09:57.806Z,0.62
2023-03-27T18:10:57.850Z,0.62
2023-03-27T18:11:57.872Z,0.61
2023-03-27T18:12:57.896Z,0.62
2023-03-27T18:13:57.909Z,0.56
2023-03-27T18:14:57.956Z,0.57
2023-03-27T18:15:58.267Z,0.60
2023-03-27T18:16:58.036Z,0.56
2023-03-27T18:17:58.117Z,0.65
2023-03-27T18:18:58.095Z,0.72
2023-03-27T18:19:58.114Z,0.66
2023-03-27T18:20:58.152Z,0.59
2023-03-27T18:21:58.166Z,0.53
2023-03-27T18:22:58.206Z,0.57
2023-03-27T18:23:58.214Z,0.55
2023-03-27T18:24:58.245Z,0.61
2023-03-27T18:25:58.511Z,0.62
2023-03-27T18:26:58.299Z,0.56
2023-03-27T18:27:58.354Z,0.61
2023-03-27T18:28:58.374Z,0.59
2023-03-27T18:29:58.399Z,0.58
2023-03-27T18:30:58.430Z,0.55
2023-03-27T18:31:58.459Z,0.55
2023-03-27T18:32:58.497Z,0.54
2023-03-27T18:33:58.533Z,0.59
2023-03-27T18:34:58.517Z,0.58
2023-03-27T18:35:58.918Z,0.58
2023-03-27T18:36:58.617Z,0.56
2023-03-27T18:37:58.600Z,0.51
2023-03-27T18:38:58.635Z,0.56
2023-03-27T18:39:58.684Z,0.51
2023-03-27T18:40:58.883Z,0.57
2023-03-27T18:41:58.771Z,0.50
2023-03-27T18:42:58.802Z,0.57
2023-03-27T18:43:58.795Z,0.53
2023-03-27T18:44:58.820Z,0.52
2023-03-27T18:45:59.066Z,0.57
2023-03-27T18:46:58.889Z,0.54
2023-03-27T18:47:58.973Z,0.53
2023-03-27T18:49:03.321Z,0.52
2023-03-27T18:49:59.977Z,0.50
2023-03-27T18:50:58.960Z,0.51
2023-03-27T18:51:58.966Z,0.53
2023-03-27T18:52:58.962Z,0.52
2023-03-27T18:53:58.944Z,0.54
2023-03-27T18:54:58.943Z,0.54
2023-03-27T18:55:59.333Z,0.57
2023-03-27T18:56:58.955Z,0.52
2023-03-27T18:57:58.906Z,0.57
2023-03-27T18:58:58.898Z,0.57
2023-03-27T18:59:58.884Z,0.55
2023-03-27T19:00:58.887Z,0.56
2023-03-27T19:01:58.958Z,0.61
2023-03-27T19:02:59.076Z,0.57
2023-03-27T19:03:58.998Z,0.57
2023-03-27T19:04:59.030Z,0.53
2023-03-27T19:05:59.405Z,0.54
2023-03-27T19:06:59.096Z,0.55
2023-03-27T19:07:59.140Z,0.57
2023-03-27T19:08:59.197Z,0.58
2023-03-27T19:09:59.202Z,0.54
2023-03-27T19:10:59.512Z,0.54
2023-03-27T19:11:59.305Z,0.59
2023-03-27T19:12:59.326Z,0.51
2023-03-27T19:13:59.388Z,0.61
2023-03-27T19:15:09.819Z,0.59
2023-03-27T19:16:00.410Z,0.59
2023-03-27T19:16:59.428Z,0.55
2023-03-27T19:17:59.439Z,0.53
2023-03-27T19:18:59.402Z,0.57
2023-03-27T19:19:59.376Z,0.55
2023-03-27T19:20:59.711Z,0.54
2023-03-27T19:21:59.366Z,0.57
2023-03-27T19:22:59.363Z,0.64
2023-03-27T19:23:59.344Z,0.59
2023-03-27T19:24:59.348Z,0.61
2023-03-27T19:25:59.360Z,0.61
2023-03-27T19:26:59.438Z,0.52
2023-03-27T19:27:59.447Z,0.57
2023-03-27T19:28:59.496Z,0.54
2023-03-27T19:29:59.537Z,0.50
2023-03-27T19:30:59.974Z,0.57
2023-03-27T19:31:59.646Z,0.59
2023-03-27T19:32:59.785Z,0.54
2023-03-27T19:33:59.723Z,0.50
2023-03-27T19:34:59.814Z,0.61
2023-03-27T19:35:59.892Z,0.65
2023-03-27T19:36:59.842Z,0.62
2023-03-27T19:37:59.889Z,0.57
2023-03-27T19:38:59.943Z,0.62
2023-03-27T19:39:59.990Z,0.62
2023-03-27T19:41:00.338Z,0.60
2023-03-27T19:42:00.072Z,0.51
2023-03-27T19:43:00.108Z,0.60
2023-03-27T19:44:00.628Z,0.52
2023-03-27T19:45:00.190Z,0.53
2023-03-27T19:46:15.011Z,0.51
2023-03-27T19:47:01.256Z,0.50
2023-03-27T19:48:00.296Z,0.52
2023-03-27T19:49:00.201Z,0.54
2023-03-27T19:50:00.209Z,0.58
2023-03-27T19:51:00.172Z,0.64
2023-03-27T19:52:00.167Z,0.53
2023-03-27T19:53:08.149Z,0.59
2023-03-27T19:54:01.158Z,0.59
2023-03-27T19:55:00.169Z,0.58
2023-03-27T19:56:00.156Z,0.61
2023-03-27T19:57:00.206Z,0.62
2023-03-27T19:58:00.153Z,0.60
2023-03-27T19:59:00.115Z,0.60
2023-03-27T20:00:00.198Z,0.55
2023-03-27T20:01:00.200Z,0.53
2023-03-27T20:02:00.264Z,0.56
2023-03-27T20:03:00.194Z,0.52
2023-03-27T20:04:00.168Z,0.62
2023-03-27T20:05:00.160Z,0.57
2023-03-27T20:06:07.566Z,0.54
2023-03-27T20:07:01.210Z,0.54
2023-03-27T20:08:00.183Z,0.55
2023-03-27T20:09:00.167Z,0.57
2023-03-27T20:10:00.187Z,0.56
2023-03-27T20:11:00.738Z,0.51
2023-03-27T20:12:00.160Z,0.53
2023-03-27T20:13:00.156Z,0.60
2023-03-27T20:14:00.146Z,0.57
2023-03-27T20:15:11.111Z,0.52
2023-03-27T20:16:01.471Z,0.52
2023-03-27T20:17:00.192Z,0.53
2023-03-27T20:18:00.216Z,0.53
2023-03-27T20:19:00.116Z,0.54
2023-03-27T20:20:00.148Z,0.53
2023-03-27T20:21:00.330Z,0.58
2023-03-27T20:22:00.134Z,0.62
2023-03-27T20:23:00.108Z,0.58
2023-03-27T20:24:00.134Z,0.57
2023-03-27T20:25:00.071Z,0.62
2023-03-27T20:26:00.355Z,0.51
2023-03-27T20:27:00.176Z,0.52
2023-03-27T20:28:00.182Z,0.53
2023-03-27T20:29:00.253Z,0.53
2023-03-27T20:30:00.304Z,0.59
2023-03-27T20:31:00.384Z,0.59
2023-03-27T20:32:00.392Z,0.60
2023-03-27T20:33:00.451Z,0.68
2023-03-27T20:34:00.469Z,0.60
2023-03-27T20:35:03.355Z,0.55
2023-03-27T20:36:01.986Z,0.54
2023-03-27T20:37:00.519Z,0.50
2023-03-27T20:38:00.510Z,0.51
2023-03-27T20:39:00.498Z,0.52
2023-03-27T20:40:00.520Z,0.53
2023-03-27T20:41:00.480Z,0.57
2023-03-27T20:42:00.474Z,0.59
2023-03-27T20:43:00.477Z,0.60
2023-03-27T20:44:00.478Z,0.52
2023-03-27T20:45:00.469Z,0.54
2023-03-27T20:46:00.810Z,0.55
2023-03-27T20:47:00.611Z,0.50
2023-03-27T20:48:00.718Z,0.50
2023-03-27T20:49:00.710Z,0.50
2023-03-27T20:50:00.741Z,0.58
2023-03-27T20:51:00.781Z,0.60
2023-03-27T20:52:00.838Z,0.62
2023-03-27T20:53:00.907Z,0.59
2023-03-27T20:54:00.937Z,0.50
2023-03-27T20:55:00.999Z,0.52
2023-03-27T20:56:01.074Z,0.51
2023-03-27T20:57:01.130Z,0.53
2023-03-27T20:58:01.163Z,0.57
2023-03-27T20:59:01.210Z,0.55
2023-03-27T21:00:01.289Z,0.55
2023-03-27T21:01:01.353Z,0.53
2023-03-27T21:02:01.412Z,0.52
2023-03-27T21:03:01.502Z,0.50
2023-03-27T21:04:01.496Z,0.65
2023-03-27T21:05:01.558Z,0.56
2023-03-27T21:06:01.607Z,0.56
2023-03-27T21:07:01.641Z,0.51
2023-03-27T21:08:01.706Z,0.52
2023-03-27T21:09:01.750Z,0.61
2023-03-27T21:10:01.839Z,0.52
2023-03-27T21:11:01.858Z,0.54
2023-03-27T21:12:01.914Z,0.55
2023-03-27T21:13:01.968Z,0.49
2023-03-27T21:14:02.023Z,0.58
2023-03-27T21:15:02.062Z,0.56
2023-03-27T21:16:02.744Z,0.53
2023-03-27T21:17:02.227Z,0.52
2023-03-27T21:18:02.263Z,0.60
2023-03-27T21:19:02.278Z,0.64
2023-03-27T21:20:02.363Z,0.58
2023-03-27T21:21:02.391Z,0.57
2023-03-27T21:22:02.428Z,0.66
2023-03-27T21:23:02.513Z,0.65
2023-03-27T21:24:02.540Z,0.53
2023-03-27T21:25:02.596Z,0.52
2023-03-27T21:26:02.645Z,0.55
2023-03-27T21:27:02.709Z,0.57
2023-03-27T21:28:02.755Z,0.61
2023-03-27T21:29:02.844Z,0.64
2023-03-27T21:30:02.881Z,0.71
2023-03-27T21:31:02.917Z,0.79
2023-03-27T21:32:03.067Z,0.62
2023-03-27T21:33:03.062Z,0.52
2023-03-27T21:34:03.108Z,0.53
2023-03-27T21:35:03.158Z,0.65
2023-03-27T21:36:03.473Z,0.65
2023-03-27T21:37:03.280Z,0.68
2023-03-27T21:38:03.314Z,0.65
2023-03-27T21:39:03.379Z,0.62
2023-03-27T21:40:03.421Z,0.62
2023-03-27T21:41:03.464Z,0.53
2023-03-27T21:42:03.516Z,0.69
2023-03-27T21:43:03.585Z,0.70
2023-03-27T21:44:03.641Z,0.77
2023-03-27T21:45:03.689Z,0.74
2023-03-27T21:46:03.974Z,0.79
2023-03-27T21:47:03.802Z,0.74
2023-03-27T21:48:03.901Z,0.69
2023-03-27T21:49:03.926Z,0.78
2023-03-27T21:50:03.970Z,0.63
2023-03-27T21:51:04.019Z,0.81
2023-03-27T21:52:04.077Z,0.72
2023-03-27T21:53:04.119Z,0.73
2023-03-27T21:54:04.182Z,0.77
2023-03-27T21:55:04.272Z,0.77
2023-03-27T21:56:04.289Z,0.70
2023-03-27T21:57:04.381Z,0.67
2023-03-27T21:58:04.395Z,0.80
2023-03-27T21:59:04.452Z,0.82
2023-03-27T22:00:04.496Z,0.80
2023-03-27T22:01:04.619Z,0.77
2023-03-27T22:02:04.616Z,0.69
2023-03-27T22:03:04.683Z,0.70
2023-03-27T22:04:04.763Z,0.87
2023-03-27T22:05:04.789Z,0.77
2023-03-27T22:06:11.808Z,0.79
2023-03-27T22:07:05.824Z,0.70
2023-03-27T22:08:04.822Z,0.73
2023-03-27T22:09:04.812Z,0.69
2023-03-27T22:10:04.791Z,0.76
2023-03-27T22:11:04.825Z,0.89
2023-03-27T22:12:04.798Z,0.74
2023-03-27T22:13:04.786Z,0.74
2023-03-27T22:14:04.763Z,0.81
2023-03-27T22:15:04.775Z,0.79
2023-03-27T22:16:04.877Z,0.72
2023-03-27T22:17:04.884Z,0.81
2023-03-27T22:18:04.985Z,0.82
2023-03-27T22:19:04.988Z,0.69
2023-03-27T22:20:05.032Z,0.74
2023-03-27T22:21:05.082Z,0.61
2023-03-27T22:22:05.124Z,0.67
2023-03-27T22:23:05.207Z,0.66
2023-03-27T22:24:05.318Z,0.69
2023-03-27T22:25:05.303Z,0.64
2023-03-27T22:26:05.339Z,0.66
2023-03-27T22:27:05.394Z,0.66
2023-03-27T22:28:05.460Z,0.70
2023-03-27T22:29:05.497Z,0.74
2023-03-27T22:30:05.543Z,0.61
2023-03-27T22:31:05.640Z,0.77
2023-03-27T22:32:05.682Z,0.81
2023-03-27T22:33:05.743Z,0.78
2023-03-27T22:34:05.763Z,0.76
2023-03-27T22:35:05.793Z,0.69
2023-03-27T22:36:06.146Z,0.76
2023-03-27T22:37:05.912Z,0.78
2023-03-27T22:38:05.951Z,0.70
2023-03-27T22:39:06.008Z,0.69
2023-03-27T22:40:06.054Z,0.75
2023-03-27T22:41:06.107Z,0.63
2023-03-27T22:42:06.173Z,0.71
2023-03-27T22:43:06.216Z,0.74
2023-03-27T22:44:06.244Z,0.77
2023-03-27T22:45:06.297Z,0.66
2023-03-27T22:46:06.411Z,0.74
2023-03-27T22:47:06.410Z,0.76
2023-03-27T22:48:06.472Z,0.68
2023-03-27T22:49:06.522Z,0.68
2023-03-27T22:50:06.558Z,0.74
2023-03-27T22:51:06.613Z,0.66
2023-03-27T22:52:06.667Z,0.73
2023-03-27T22:53:06.732Z,0.72
2023-03-27T22:54:06.782Z,0.71
2023-03-27T22:55:06.816Z,0.59
2023-03-27T22:56:06.874Z,0.78
2023-03-27T22:57:06.978Z,0.76
2023-03-27T22:58:06.976Z,0.66
2023-03-27T22:59:07.049Z,0.74
2023-03-27T23:00:07.085Z,0.71
2023-03-27T23:01:07.160Z,0.75
2023-03-27T23:02:07.278Z,0.68
2023-03-27T23:03:07.405Z,0.68
2023-03-27T23:04:07.322Z,0.79
2023-03-27T23:05:07.371Z,0.74
2023-03-27T23:06:07.442Z,0.76
2023-03-27T23:07:07.474Z,0.89
2023-03-27T23:08:07.524Z,0.87
2023-03-27T23:09:07.569Z,0.79
2023-03-27T23:10:07.642Z,0.85
2023-03-27T23:11:07.702Z,0.79
2023-03-27T23:12:07.733Z,0.88
2023-03-27T23:13:07.795Z,0.70
2023-03-27T23:14:07.844Z,0.75
2023-03-27T23:15:07.878Z,0.85
2023-03-27T23:16:07.955Z,0.86
2023-03-27T23:17:08.036Z,1.03
2023-03-27T23:18:08.081Z,1.06
2023-03-27T23:19:08.215Z,0.95
2023-03-27T23:20:08.162Z,0.92
2023-03-27T23:21:08.216Z,0.81
2023-03-27T23:22:08.253Z,0.72
2023-03-27T23:23:08.319Z,0.82
2023-03-27T23:24:08.377Z,0.81
2023-03-27T23:25:08.427Z,0.88
2023-03-27T23:26:08.488Z,0.92
2023-03-27T23:27:08.599Z,1.03
2023-03-27T23:28:08.570Z,1.00
2023-03-27T23:29:08.632Z,1.06
2023-03-27T23:30:08.702Z,0.92
2023-03-27T23:31:08.746Z,0.75
2023-03-27T23:32:08.872Z,0.83
2023-03-27T23:33:08.879Z,0.86
2023-03-27T23:34:08.913Z,0.93
2023-03-27T23:35:08.951Z,0.89
2023-03-27T23:36:09.071Z,0.83
2023-03-27T23:37:09.075Z,0.83
2023-03-27T23:38:09.101Z,0.84
2023-03-27T23:39:09.161Z,0.96
2023-03-27T23:40:09.218Z,0.89
2023-03-27T23:41:09.263Z,0.89
2023-03-27T23:42:09.327Z,0.91
2023-03-27T23:43:09.382Z,0.94
2023-03-27T23:44:09.433Z,0.91
2023-03-27T23:45:09.468Z,0.94
2023-03-27T23:46:09.577Z,0.74
2023-03-27T23:47:09.588Z,0.70
2023-03-27T23:48:09.646Z,0.65
2023-03-27T23:49:09.683Z,0.84
2023-03-27T23:50:09.733Z,0.83
2023-03-27T23:51:09.783Z,0.77
2023-03-27T23:52:09.842Z,0.79
2023-03-27T23:53:09.887Z,0.88
2023-03-27T23:54:09.938Z,0.89
2023-03-27T23:55:09.994Z,0.73
2023-03-27T23:56:10.082Z,0.64
2023-03-27T23:57:10.169Z,0.70
2023-03-27T23:58:10.183Z,0.69
2023-03-27T23:59:10.239Z,0.67
